sensor_id;sensor_type;location;lat;lon;timestamp;temperature;humidity
33149;DHT22;19506;51.040;3.856;2023-04-06T00:00:57;17.40;99.90
33149;DHT22;19506;51.040;3.856;2023-04-06T00:03:23;17.40;99.90
33149;DHT22;19506;51.040;3.856;2023-04-06T00:05:49;17.40;99.90
33149;DHT22;19506;51.040;3.856;2023-04-06T00:08:15;17.40;99.90
33149;DHT22;19506;51.040;3.856;2023-04-06T00:10:40;17.30;99.90
33149;DHT22;19506;51.040;3.856;2023-04-06T00:13:06;17.30;99.90
33149;DHT22;19506;51.040;3.856;2023-04-06T00:15:33;17.30;99.90
33149;DHT22;19506;51.040;3.856;2023-04-06T00:17:59;17.30;99.90
33149;DHT22;19506;51.040;3.856;2023-04-06T00:20:24;17.30;99.90
33149;DHT22;19506;51.040;3.856;2023-04-06T00:22:50;17.40;99.90
33149;DHT22;19506;51.040;3.856;2023-04-06T00:25:16;17.60;99.90
33149;DHT22;19506;51.040;3.856;2023-04-06T00:27:42;17.70;99.90
33149;DHT22;19506;51.040;3.856;2023-04-06T00:30:08;17.80;99.90
33149;DHT22;19506;51.040;3.856;2023-04-06T00:32:35;17.80;99.90
33149;DHT22;19506;51.040;3.856;2023-04-06T00:35:05;17.80;99.90
33149;DHT22;19506;51.040;3.856;2023-04-06T00:37:31;17.80;99.90
33149;DHT22;19506;51.040;3.856;2023-04-06T00:39:57;17.80;99.90
33149;DHT22;19506;51.040;3.856;2023-04-06T00:42:23;17.80;99.90
33149;DHT22;19506;51.040;3.856;2023-04-06T00:44:55;17.70;99.90
33149;DHT22;19506;51.040;3.856;2023-04-06T00:47:22;17.70;99.90
33149;DHT22;19506;51.040;3.856;2023-04-06T00:49:48;17.70;99.90
33149;DHT22;19506;51.040;3.856;2023-04-06T00:52:14;17.70;99.90
33149;DHT22;19506;51.040;3.856;2023-04-06T00:54:41;17.70;99.90
33149;DHT22;19506;51.040;3.856;2023-04-06T00:57:06;17.70;99.90
33149;DHT22;19506;51.040;3.856;2023-04-06T00:59:32;17.70;99.90
33149;DHT22;19506;51.040;3.856;2023-04-06T01:01:58;17.60;99.90
33149;DHT22;19506;51.040;3.856;2023-04-06T01:04:24;17.60;99.90
33149;DHT22;19506;51.040;3.856;2023-04-06T01:06:50;17.60;99.90
33149;DHT22;19506;51.040;3.856;2023-04-06T01:09:16;17.60;99.90
33149;DHT22;19506;51.040;3.856;2023-04-06T01:11:42;17.60;99.90
33149;DHT22;19506;51.040;3.856;2023-04-06T01:14:08;17.60;99.90
33149;DHT22;19506;51.040;3.856;2023-04-06T01:16:34;17.60;99.90
33149;DHT22;19506;51.040;3.856;2023-04-06T01:19:00;17.60;99.90
33149;DHT22;19506;51.040;3.856;2023-04-06T01:21:26;17.60;99.90
33149;DHT22;19506;51.040;3.856;2023-04-06T01:23:51;17.50;99.90
33149;DHT22;19506;51.040;3.856;2023-04-06T01:26:17;17.50;99.90
33149;DHT22;19506;51.040;3.856;2023-04-06T01:28:43;17.50;99.90
33149;DHT22;19506;51.040;3.856;2023-04-06T01:31:10;17.50;99.90
33149;DHT22;19506;51.040;3.856;2023-04-06T01:33:36;17.50;99.90
33149;DHT22;19506;51.040;3.856;2023-04-06T01:36:02;17.50;99.90
33149;DHT22;19506;51.040;3.856;2023-04-06T01:38:28;17.50;99.90
33149;DHT22;19506;51.040;3.856;2023-04-06T01:40:54;17.50;99.90
33149;DHT22;19506;51.040;3.856;2023-04-06T01:43:20;17.40;99.90
33149;DHT22;19506;51.040;3.856;2023-04-06T01:45:46;17.40;99.90
33149;DHT22;19506;51.040;3.856;2023-04-06T01:48:12;17.40;99.90
33149;DHT22;19506;51.040;3.856;2023-04-06T01:50:37;17.40;99.90
33149;DHT22;19506;51.040;3.856;2023-04-06T01:53:03;17.40;99.90
33149;DHT22;19506;51.040;3.856;2023-04-06T01:55:28;17.40;99.90
33149;DHT22;19506;51.040;3.856;2023-04-06T01:57:54;17.40;99.90
33149;DHT22;19506;51.040;3.856;2023-04-06T02:00:20;17.30;99.90
33149;DHT22;19506;51.040;3.856;2023-04-06T02:02:46;17.30;99.90
33149;DHT22;19506;51.040;3.856;2023-04-06T02:05:12;17.30;99.90
33149;DHT22;19506;51.040;3.856;2023-04-06T02:07:37;17.30;99.90
33149;DHT22;19506;51.040;3.856;2023-04-06T02:10:03;17.30;99.90
33149;DHT22;19506;51.040;3.856;2023-04-06T02:12:29;17.30;99.90
33149;DHT22;19506;51.040;3.856;2023-04-06T02:14:54;17.30;99.90
33149;DHT22;19506;51.040;3.856;2023-04-06T02:17:20;17.30;99.90
33149;DHT22;19506;51.040;3.856;2023-04-06T02:19:46;17.30;99.90
33149;DHT22;19506;51.040;3.856;2023-04-06T02:22:12;17.30;99.90
33149;DHT22;19506;51.040;3.856;2023-04-06T02:24:37;17.30;99.90
33149;DHT22;19506;51.040;3.856;2023-04-06T02:27:03;17.20;99.90
33149;DHT22;19506;51.040;3.856;2023-04-06T02:29:28;17.30;99.90
33149;DHT22;19506;51.040;3.856;2023-04-06T02:31:54;17.30;99.90
33149;DHT22;19506;51.040;3.856;2023-04-06T02:34:20;17.20;99.90
33149;DHT22;19506;51.040;3.856;2023-04-06T02:36:46;17.20;99.90
33149;DHT22;19506;51.040;3.856;2023-04-06T02:39:12;17.20;99.90
33149;DHT22;19506;51.040;3.856;2023-04-06T02:41:38;17.20;99.90
33149;DHT22;19506;51.040;3.856;2023-04-06T02:44:07;17.20;99.90
33149;DHT22;19506;51.040;3.856;2023-04-06T02:46:33;17.20;99.90
33149;DHT22;19506;51.040;3.856;2023-04-06T02:48:58;17.20;99.90
33149;DHT22;19506;51.040;3.856;2023-04-06T02:51:26;17.20;99.90
33149;DHT22;19506;51.040;3.856;2023-04-06T02:53:51;17.20;99.90
33149;DHT22;19506;51.040;3.856;2023-04-06T02:56:17;17.20;99.90
33149;DHT22;19506;51.040;3.856;2023-04-06T02:58:43;17.20;99.90
33149;DHT22;19506;51.040;3.856;2023-04-06T03:01:08;17.10;99.90
33149;DHT22;19506;51.040;3.856;2023-04-06T03:03:34;17.10;99.90
33149;DHT22;19506;51.040;3.856;2023-04-06T03:06:00;17.10;99.90
33149;DHT22;19506;51.040;3.856;2023-04-06T03:08:26;17.10;99.90
33149;DHT22;19506;51.040;3.856;2023-04-06T03:10:51;17.10;99.90
33149;DHT22;19506;51.040;3.856;2023-04-06T03:13:17;17.10;99.90
33149;DHT22;19506;51.040;3.856;2023-04-06T03:15:43;17.10;99.90
33149;DHT22;19506;51.040;3.856;2023-04-06T03:18:08;17.10;99.90
33149;DHT22;19506;51.040;3.856;2023-04-06T03:20:34;17.10;99.90
33149;DHT22;19506;51.040;3.856;2023-04-06T03:23:00;17.10;99.90
33149;DHT22;19506;51.040;3.856;2023-04-06T03:25:25;17.10;99.90
33149;DHT22;19506;51.040;3.856;2023-04-06T03:27:51;17.10;99.90
33149;DHT22;19506;51.040;3.856;2023-04-06T03:30:17;17.10;99.90
33149;DHT22;19506;51.040;3.856;2023-04-06T03:32:45;17.10;99.90
33149;DHT22;19506;51.040;3.856;2023-04-06T03:35:11;17.10;99.90
33149;DHT22;19506;51.040;3.856;2023-04-06T03:37:37;17.00;99.90
33149;DHT22;19506;51.040;3.856;2023-04-06T03:40:04;17.10;99.90
33149;DHT22;19506;51.040;3.856;2023-04-06T03:42:29;17.10;99.90
33149;DHT22;19506;51.040;3.856;2023-04-06T03:44:56;17.00;99.90
33149;DHT22;19506;51.040;3.856;2023-04-06T03:47:22;17.00;99.90
33149;DHT22;19506;51.040;3.856;2023-04-06T03:49:47;17.00;99.90
33149;DHT22;19506;51.040;3.856;2023-04-06T03:52:13;17.00;99.90
33149;DHT22;19506;51.040;3.856;2023-04-06T03:54:39;17.00;99.90
33149;DHT22;19506;51.040;3.856;2023-04-06T03:57:05;17.00;99.90
33149;DHT22;19506;51.040;3.856;2023-04-06T03:59:30;17.00;99.90
33149;DHT22;19506;51.040;3.856;2023-04-06T04:01:56;17.00;99.90
33149;DHT22;19506;51.040;3.856;2023-04-06T04:04:21;17.00;99.90
33149;DHT22;19506;51.040;3.856;2023-04-06T04:06:47;17.00;99.90
33149;DHT22;19506;51.040;3.856;2023-04-06T04:09:12;17.00;99.90
33149;DHT22;19506;51.040;3.856;2023-04-06T04:11:38;17.00;99.90
33149;DHT22;19506;51.040;3.856;2023-04-06T04:14:04;17.00;99.90
33149;DHT22;19506;51.040;3.856;2023-04-06T04:16:30;17.00;99.90
33149;DHT22;19506;51.040;3.856;2023-04-06T04:18:56;16.90;99.90
33149;DHT22;19506;51.040;3.856;2023-04-06T04:21:23;16.90;99.90
33149;DHT22;19506;51.040;3.856;2023-04-06T04:23:48;16.90;99.90
33149;DHT22;19506;51.040;3.856;2023-04-06T04:26:15;16.90;99.90
33149;DHT22;19506;51.040;3.856;2023-04-06T04:28:40;16.90;99.90
33149;DHT22;19506;51.040;3.856;2023-04-06T04:31:06;16.90;99.90
33149;DHT22;19506;51.040;3.856;2023-04-06T04:33:31;16.90;99.90
33149;DHT22;19506;51.040;3.856;2023-04-06T04:35:57;16.90;99.90
33149;DHT22;19506;51.040;3.856;2023-04-06T04:38:22;16.90;99.90
33149;DHT22;19506;51.040;3.856;2023-04-06T04:40:48;16.90;99.90
33149;DHT22;19506;51.040;3.856;2023-04-06T04:43:14;16.90;99.90
33149;DHT22;19506;51.040;3.856;2023-04-06T04:45:40;16.90;99.90
33149;DHT22;19506;51.040;3.856;2023-04-06T04:48:05;16.90;99.90
33149;DHT22;19506;51.040;3.856;2023-04-06T04:50:32;16.90;99.90
33149;DHT22;19506;51.040;3.856;2023-04-06T04:52:57;16.90;99.90
33149;DHT22;19506;51.040;3.856;2023-04-06T04:55:23;16.90;99.90
33149;DHT22;19506;51.040;3.856;2023-04-06T04:57:49;16.90;99.90
33149;DHT22;19506;51.040;3.856;2023-04-06T05:00:14;16.90;99.90
33149;DHT22;19506;51.040;3.856;2023-04-06T05:02:40;16.80;99.90
33149;DHT22;19506;51.040;3.856;2023-04-06T05:05:06;16.80;99.90
33149;DHT22;19506;51.040;3.856;2023-04-06T05:07:32;16.80;99.90
33149;DHT22;19506;51.040;3.856;2023-04-06T05:09:59;16.80;99.90
33149;DHT22;19506;51.040;3.856;2023-04-06T05:12:24;16.80;99.90
33149;DHT22;19506;51.040;3.856;2023-04-06T05:14:50;16.80;99.90
33149;DHT22;19506;51.040;3.856;2023-04-06T05:17:16;16.80;99.90
33149;DHT22;19506;51.040;3.856;2023-04-06T05:19:41;16.80;99.90
33149;DHT22;19506;51.040;3.856;2023-04-06T05:22:07;16.80;99.90
33149;DHT22;19506;51.040;3.856;2023-04-06T05:24:33;16.80;99.90
33149;DHT22;19506;51.040;3.856;2023-04-06T05:27:00;16.80;99.90
33149;DHT22;19506;51.040;3.856;2023-04-06T05:29:26;16.80;99.90
33149;DHT22;19506;51.040;3.856;2023-04-06T05:31:51;16.80;99.90
33149;DHT22;19506;51.040;3.856;2023-04-06T05:34:17;16.80;99.90
33149;DHT22;19506;51.040;3.856;2023-04-06T05:36:42;16.70;99.90
33149;DHT22;19506;51.040;3.856;2023-04-06T05:39:08;16.80;99.90
33149;DHT22;19506;51.040;3.856;2023-04-06T05:41:34;16.90;99.90
33149;DHT22;19506;51.040;3.856;2023-04-06T05:43:59;17.10;99.90
33149;DHT22;19506;51.040;3.856;2023-04-06T05:46:25;17.20;99.90
33149;DHT22;19506;51.040;3.856;2023-04-06T05:48:51;17.30;99.90
33149;DHT22;19506;51.040;3.856;2023-04-06T05:51:17;17.50;99.90
33149;DHT22;19506;51.040;3.856;2023-04-06T05:53:42;17.60;99.90
33149;DHT22;19506;51.040;3.856;2023-04-06T05:56:08;17.70;99.90
33149;DHT22;19506;51.040;3.856;2023-04-06T05:58:34;17.70;99.90
33149;DHT22;19506;51.040;3.856;2023-04-06T06:01:00;17.80;99.90
33149;DHT22;19506;51.040;3.856;2023-04-06T06:03:26;17.80;99.90
33149;DHT22;19506;51.040;3.856;2023-04-06T06:05:51;17.80;99.90
33149;DHT22;19506;51.040;3.856;2023-04-06T06:08:17;17.80;99.90
33149;DHT22;19506;51.040;3.856;2023-04-06T06:10:43;17.90;99.90
33149;DHT22;19506;51.040;3.856;2023-04-06T06:13:09;18.00;99.90
33149;DHT22;19506;51.040;3.856;2023-04-06T06:15:34;18.10;99.90
33149;DHT22;19506;51.040;3.856;2023-04-06T06:18:00;18.20;99.90
33149;DHT22;19506;51.040;3.856;2023-04-06T06:20:27;18.30;99.90
33149;DHT22;19506;51.040;3.856;2023-04-06T06:22:52;18.40;99.90
33149;DHT22;19506;51.040;3.856;2023-04-06T06:25:18;18.50;99.90
33149;DHT22;19506;51.040;3.856;2023-04-06T06:27:44;18.60;99.90
33149;DHT22;19506;51.040;3.856;2023-04-06T06:30:10;18.60;99.90
33149;DHT22;19506;51.040;3.856;2023-04-06T06:32:35;18.70;99.90
33149;DHT22;19506;51.040;3.856;2023-04-06T06:35:01;18.70;99.90
33149;DHT22;19506;51.040;3.856;2023-04-06T06:37:28;18.70;99.90
33149;DHT22;19506;51.040;3.856;2023-04-06T06:39:53;18.70;99.90
33149;DHT22;19506;51.040;3.856;2023-04-06T06:42:19;18.70;99.90
33149;DHT22;19506;51.040;3.856;2023-04-06T06:44:44;18.70;99.90
33149;DHT22;19506;51.040;3.856;2023-04-06T06:47:10;18.70;99.90
33149;DHT22;19506;51.040;3.856;2023-04-06T06:49:36;18.70;99.90
33149;DHT22;19506;51.040;3.856;2023-04-06T06:52:02;18.70;99.90
33149;DHT22;19506;51.040;3.856;2023-04-06T06:54:27;18.70;99.90
33149;DHT22;19506;51.040;3.856;2023-04-06T06:56:53;18.70;99.90
33149;DHT22;19506;51.040;3.856;2023-04-06T06:59:20;18.70;99.90
33149;DHT22;19506;51.040;3.856;2023-04-06T07:01:46;18.70;99.90
33149;DHT22;19506;51.040;3.856;2023-04-06T07:04:11;18.60;99.90
33149;DHT22;19506;51.040;3.856;2023-04-06T07:06:37;18.60;99.90
33149;DHT22;19506;51.040;3.856;2023-04-06T07:09:03;18.60;99.90
33149;DHT22;19506;51.040;3.856;2023-04-06T07:11:29;18.60;99.90
33149;DHT22;19506;51.040;3.856;2023-04-06T07:13:55;18.60;99.90
33149;DHT22;19506;51.040;3.856;2023-04-06T07:16:21;18.60;99.90
33149;DHT22;19506;51.040;3.856;2023-04-06T07:18:47;18.60;99.90
33149;DHT22;19506;51.040;3.856;2023-04-06T07:21:12;18.60;99.90
33149;DHT22;19506;51.040;3.856;2023-04-06T07:23:38;18.60;99.90
33149;DHT22;19506;51.040;3.856;2023-04-06T07:26:04;18.60;99.90
33149;DHT22;19506;51.040;3.856;2023-04-06T07:28:32;18.70;99.90
33149;DHT22;19506;51.040;3.856;2023-04-06T07:30:58;18.60;99.90
33149;DHT22;19506;51.040;3.856;2023-04-06T07:33:23;18.70;99.90
33149;DHT22;19506;51.040;3.856;2023-04-06T07:35:49;18.70;99.90
33149;DHT22;19506;51.040;3.856;2023-04-06T07:38:15;18.70;99.90
33149;DHT22;19506;51.040;3.856;2023-04-06T07:40:40;18.70;99.90
33149;DHT22;19506;51.040;3.856;2023-04-06T07:43:06;18.70;99.90
33149;DHT22;19506;51.040;3.856;2023-04-06T07:45:31;18.50;99.90
33149;DHT22;19506;51.040;3.856;2023-04-06T07:47:57;18.50;99.90
33149;DHT22;19506;51.040;3.856;2023-04-06T07:50:23;18.50;99.90
33149;DHT22;19506;51.040;3.856;2023-04-06T07:52:48;18.50;99.90
33149;DHT22;19506;51.040;3.856;2023-04-06T07:55:14;18.40;99.90
33149;DHT22;19506;51.040;3.856;2023-04-06T07:57:40;18.40;99.90
33149;DHT22;19506;51.040;3.856;2023-04-06T08:00:06;18.40;99.90
33149;DHT22;19506;51.040;3.856;2023-04-06T08:02:34;18.40;99.90
33149;DHT22;19506;51.040;3.856;2023-04-06T08:05:00;18.40;99.90
33149;DHT22;19506;51.040;3.856;2023-04-06T08:07:26;18.40;99.90
33149;DHT22;19506;51.040;3.856;2023-04-06T08:09:52;18.40;99.90
33149;DHT22;19506;51.040;3.856;2023-04-06T08:12:17;18.40;99.90
33149;DHT22;19506;51.040;3.856;2023-04-06T08:14:43;18.40;99.90
33149;DHT22;19506;51.040;3.856;2023-04-06T08:17:09;18.40;99.90
33149;DHT22;19506;51.040;3.856;2023-04-06T08:19:34;18.40;99.90
33149;DHT22;19506;51.040;3.856;2023-04-06T08:22:00;18.40;99.90
33149;DHT22;19506;51.040;3.856;2023-04-06T08:24:26;18.40;99.90
33149;DHT22;19506;51.040;3.856;2023-04-06T08:26:52;18.40;99.90
33149;DHT22;19506;51.040;3.856;2023-04-06T08:29:18;18.50;99.90
33149;DHT22;19506;51.040;3.856;2023-04-06T08:31:44;18.40;99.90
33149;DHT22;19506;51.040;3.856;2023-04-06T08:34:09;18.40;99.90
33149;DHT22;19506;51.040;3.856;2023-04-06T08:36:35;18.40;99.90
33149;DHT22;19506;51.040;3.856;2023-04-06T08:39:01;18.30;99.90
33149;DHT22;19506;51.040;3.856;2023-04-06T08:41:27;18.40;99.90
33149;DHT22;19506;51.040;3.856;2023-04-06T08:44:01;18.30;99.90
33149;DHT22;19506;51.040;3.856;2023-04-06T08:46:29;18.30;99.90
33149;DHT22;19506;51.040;3.856;2023-04-06T08:49:00;18.20;99.90
33149;DHT22;19506;51.040;3.856;2023-04-06T08:51:27;18.20;99.90
33149;DHT22;19506;51.040;3.856;2023-04-06T08:53:54;18.10;99.90
33149;DHT22;19506;51.040;3.856;2023-04-06T08:56:28;18.00;99.90
33149;DHT22;19506;51.040;3.856;2023-04-06T08:58:54;17.90;99.90
33149;DHT22;19506;51.040;3.856;2023-04-06T09:01:25;17.90;99.90
33149;DHT22;19506;51.040;3.856;2023-04-06T09:03:51;17.80;99.90
33149;DHT22;19506;51.040;3.856;2023-04-06T09:06:18;17.80;99.90
33149;DHT22;19506;51.040;3.856;2023-04-06T09:08:44;17.80;99.90
33149;DHT22;19506;51.040;3.856;2023-04-06T09:11:10;17.80;99.90
33149;DHT22;19506;51.040;3.856;2023-04-06T09:13:50;17.70;99.90
33149;DHT22;19506;51.040;3.856;2023-04-06T09:16:17;17.60;99.90
33149;DHT22;19506;51.040;3.856;2023-04-06T09:18:43;17.60;99.90
33149;DHT22;19506;51.040;3.856;2023-04-06T09:21:09;17.80;99.90
33149;DHT22;19506;51.040;3.856;2023-04-06T09:23:35;18.10;99.90
33149;DHT22;19506;51.040;3.856;2023-04-06T09:26:17;18.10;99.90
33149;DHT22;19506;51.040;3.856;2023-04-06T09:28:51;18.20;99.90
33149;DHT22;19506;51.040;3.856;2023-04-06T09:31:37;18.20;99.90
33149;DHT22;19506;51.040;3.856;2023-04-06T09:34:03;18.10;99.90
33149;DHT22;19506;51.040;3.856;2023-04-06T09:36:33;18.10;99.90
33149;DHT22;19506;51.040;3.856;2023-04-06T09:39:04;18.10;99.90
33149;DHT22;19506;51.040;3.856;2023-04-06T09:41:31;18.20;99.90
33149;DHT22;19506;51.040;3.856;2023-04-06T09:44:12;18.10;99.90
33149;DHT22;19506;51.040;3.856;2023-04-06T09:46:40;18.10;99.90
33149;DHT22;19506;51.040;3.856;2023-04-06T09:49:07;18.00;99.90
33149;DHT22;19506;51.040;3.856;2023-04-06T09:51:47;17.90;99.90
33149;DHT22;19506;51.040;3.856;2023-04-06T09:54:22;18.00;99.90
33149;DHT22;19506;51.040;3.856;2023-04-06T09:57:13;17.90;99.90
33149;DHT22;19506;51.040;3.856;2023-04-06T10:00:01;17.90;99.90
33149;DHT22;19506;51.040;3.856;2023-04-06T10:02:58;17.90;99.90
33149;DHT22;19506;51.040;3.856;2023-04-06T10:08:13;17.90;99.90
33149;DHT22;19506;51.040;3.856;2023-04-06T10:10:40;17.80;99.90
33149;DHT22;19506;51.040;3.856;2023-04-06T10:13:07;17.90;99.90
33149;DHT22;19506;51.040;3.856;2023-04-06T10:15:36;17.80;99.90
33149;DHT22;19506;51.040;3.856;2023-04-06T10:18:03;17.90;99.90
33149;DHT22;19506;51.040;3.856;2023-04-06T10:25:59;17.80;99.90
33149;DHT22;19506;51.040;3.856;2023-04-06T10:28:26;17.80;99.90
33149;DHT22;19506;51.040;3.856;2023-04-06T10:30:59;17.70;99.90
33149;DHT22;19506;51.040;3.856;2023-04-06T10:33:26;17.80;99.90
33149;DHT22;19506;51.040;3.856;2023-04-06T10:35:51;17.70;99.90
33149;DHT22;19506;51.040;3.856;2023-04-06T10:38:18;17.70;99.90
33149;DHT22;19506;51.040;3.856;2023-04-06T10:40:47;17.70;99.90
33149;DHT22;19506;51.040;3.856;2023-04-06T10:43:19;17.60;99.90
33149;DHT22;19506;51.040;3.856;2023-04-06T10:45:45;17.60;99.90
33149;DHT22;19506;51.040;3.856;2023-04-06T10:48:19;17.60;99.90
33149;DHT22;19506;51.040;3.856;2023-04-06T10:50:48;17.60;99.90
33149;DHT22;19506;51.040;3.856;2023-04-06T10:53:25;17.50;99.90
33149;DHT22;19506;51.040;3.856;2023-04-06T10:55:56;17.50;99.90
33149;DHT22;19506;51.040;3.856;2023-04-06T10:58:28;17.60;99.90
33149;DHT22;19506;51.040;3.856;2023-04-06T11:00:55;17.60;99.90
33149;DHT22;19506;51.040;3.856;2023-04-06T11:03:21;17.60;99.90
33149;DHT22;19506;51.040;3.856;2023-04-06T11:05:48;17.70;99.90
33149;DHT22;19506;51.040;3.856;2023-04-06T11:08:26;17.70;99.90
33149;DHT22;19506;51.040;3.856;2023-04-06T11:11:04;17.70;99.90
33149;DHT22;19506;51.040;3.856;2023-04-06T11:13:38;17.70;99.90
33149;DHT22;19506;51.040;3.856;2023-04-06T11:16:04;17.70;99.90
33149;DHT22;19506;51.040;3.856;2023-04-06T11:18:30;17.70;99.90
33149;DHT22;19506;51.040;3.856;2023-04-06T11:20:56;17.70;99.90
33149;DHT22;19506;51.040;3.856;2023-04-06T11:23:23;17.70;99.90
33149;DHT22;19506;51.040;3.856;2023-04-06T11:25:51;17.60;99.90
33149;DHT22;19506;51.040;3.856;2023-04-06T11:28:17;17.70;99.90
33149;DHT22;19506;51.040;3.856;2023-04-06T11:30:43;17.70;99.90
33149;DHT22;19506;51.040;3.856;2023-04-06T11:33:08;17.60;99.90
33149;DHT22;19506;51.040;3.856;2023-04-06T11:35:34;17.60;99.90
33149;DHT22;19506;51.040;3.856;2023-04-06T11:38:05;17.60;99.90
33149;DHT22;19506;51.040;3.856;2023-04-06T11:40:31;17.60;99.90
33149;DHT22;19506;51.040;3.856;2023-04-06T11:42:58;17.60;99.90
33149;DHT22;19506;51.040;3.856;2023-04-06T11:45:24;17.60;99.90
33149;DHT22;19506;51.040;3.856;2023-04-06T11:48:00;17.60;99.90
33149;DHT22;19506;51.040;3.856;2023-04-06T11:50:31;17.60;99.90
33149;DHT22;19506;51.040;3.856;2023-04-06T11:53:01;17.50;99.90
33149;DHT22;19506;51.040;3.856;2023-04-06T11:55:28;17.50;99.90
33149;DHT22;19506;51.040;3.856;2023-04-06T11:57:54;17.40;99.90
33149;DHT22;19506;51.040;3.856;2023-04-06T12:00:20;17.40;99.90
33149;DHT22;19506;51.040;3.856;2023-04-06T12:02:47;17.30;99.90
33149;DHT22;19506;51.040;3.856;2023-04-06T12:05:13;17.40;99.90
33149;DHT22;19506;51.040;3.856;2023-04-06T12:07:39;17.50;99.90
33149;DHT22;19506;51.040;3.856;2023-04-06T12:10:05;17.50;99.90
33149;DHT22;19506;51.040;3.856;2023-04-06T12:12:31;17.50;99.90
33149;DHT22;19506;51.040;3.856;2023-04-06T12:14:56;17.50;99.90
33149;DHT22;19506;51.040;3.856;2023-04-06T12:17:23;17.50;99.90
33149;DHT22;19506;51.040;3.856;2023-04-06T12:19:49;17.50;99.90
33149;DHT22;19506;51.040;3.856;2023-04-06T12:22:15;17.40;99.90
33149;DHT22;19506;51.040;3.856;2023-04-06T12:24:41;17.40;99.90
33149;DHT22;19506;51.040;3.856;2023-04-06T12:27:06;17.40;99.90
33149;DHT22;19506;51.040;3.856;2023-04-06T12:29:32;17.40;99.90
33149;DHT22;19506;51.040;3.856;2023-04-06T12:31:58;17.40;99.90
33149;DHT22;19506;51.040;3.856;2023-04-06T12:34:26;17.40;99.90
33149;DHT22;19506;51.040;3.856;2023-04-06T12:36:52;17.40;99.90
33149;DHT22;19506;51.040;3.856;2023-04-06T12:39:18;17.40;99.90
33149;DHT22;19506;51.040;3.856;2023-04-06T12:41:44;17.40;99.90
33149;DHT22;19506;51.040;3.856;2023-04-06T12:44:10;17.30;99.90
33149;DHT22;19506;51.040;3.856;2023-04-06T12:46:36;17.30;99.90
33149;DHT22;19506;51.040;3.856;2023-04-06T12:49:02;17.30;99.90
33149;DHT22;19506;51.040;3.856;2023-04-06T12:51:28;17.30;99.90
33149;DHT22;19506;51.040;3.856;2023-04-06T12:53:54;17.30;99.90
33149;DHT22;19506;51.040;3.856;2023-04-06T12:56:20;17.30;99.90
33149;DHT22;19506;51.040;3.856;2023-04-06T12:58:50;17.30;99.90
33149;DHT22;19506;51.040;3.856;2023-04-06T13:01:16;17.30;99.90
33149;DHT22;19506;51.040;3.856;2023-04-06T13:03:42;17.30;99.90
33149;DHT22;19506;51.040;3.856;2023-04-06T13:06:08;17.20;99.90
33149;DHT22;19506;51.040;3.856;2023-04-06T13:08:34;17.20;99.90
33149;DHT22;19506;51.040;3.856;2023-04-06T13:11:01;17.30;99.90
33149;DHT22;19506;51.040;3.856;2023-04-06T13:13:27;17.30;99.90
33149;DHT22;19506;51.040;3.856;2023-04-06T13:15:54;17.30;99.90
33149;DHT22;19506;51.040;3.856;2023-04-06T13:18:21;17.30;99.90
33149;DHT22;19506;51.040;3.856;2023-04-06T13:20:48;17.30;99.90
33149;DHT22;19506;51.040;3.856;2023-04-06T13:23:14;17.30;99.90
33149;DHT22;19506;51.040;3.856;2023-04-06T13:25:40;17.30;99.90
33149;DHT22;19506;51.040;3.856;2023-04-06T13:28:05;17.30;99.90
33149;DHT22;19506;51.040;3.856;2023-04-06T13:30:31;17.30;99.90
33149;DHT22;19506;51.040;3.856;2023-04-06T13:32:56;17.30;99.90
33149;DHT22;19506;51.040;3.856;2023-04-06T13:35:22;17.30;99.90
33149;DHT22;19506;51.040;3.856;2023-04-06T13:37:48;17.20;99.90
33149;DHT22;19506;51.040;3.856;2023-04-06T13:40:14;17.30;99.90
33149;DHT22;19506;51.040;3.856;2023-04-06T13:42:40;17.30;99.90
33149;DHT22;19506;51.040;3.856;2023-04-06T13:45:07;17.20;99.90
33149;DHT22;19506;51.040;3.856;2023-04-06T13:47:33;17.20;99.90
33149;DHT22;19506;51.040;3.856;2023-04-06T13:49:59;17.20;99.90
33149;DHT22;19506;51.040;3.856;2023-04-06T13:52:25;17.20;99.90
33149;DHT22;19506;51.040;3.856;2023-04-06T13:54:50;17.20;99.90
33149;DHT22;19506;51.040;3.856;2023-04-06T13:57:16;17.20;99.90
33149;DHT22;19506;51.040;3.856;2023-04-06T13:59:42;17.20;99.90
33149;DHT22;19506;51.040;3.856;2023-04-06T14:02:08;17.20;99.90
33149;DHT22;19506;51.040;3.856;2023-04-06T14:04:34;17.10;99.90
33149;DHT22;19506;51.040;3.856;2023-04-06T14:07:01;17.20;99.90
33149;DHT22;19506;51.040;3.856;2023-04-06T14:09:27;17.10;99.90
33149;DHT22;19506;51.040;3.856;2023-04-06T14:11:53;17.10;99.90
33149;DHT22;19506;51.040;3.856;2023-04-06T14:14:19;17.10;99.90
33149;DHT22;19506;51.040;3.856;2023-04-06T14:16:44;17.20;99.90
33149;DHT22;19506;51.040;3.856;2023-04-06T14:19:11;17.20;99.90
33149;DHT22;19506;51.040;3.856;2023-04-06T14:21:38;17.20;99.90
33149;DHT22;19506;51.040;3.856;2023-04-06T14:24:08;17.20;99.90
33149;DHT22;19506;51.040;3.856;2023-04-06T14:26:35;17.10;99.90
33149;DHT22;19506;51.040;3.856;2023-04-06T14:29:00;17.10;99.90
33149;DHT22;19506;51.040;3.856;2023-04-06T14:31:26;17.10;99.90
33149;DHT22;19506;51.040;3.856;2023-04-06T14:33:52;17.10;99.90
33149;DHT22;19506;51.040;3.856;2023-04-06T14:36:18;17.20;99.90
33149;DHT22;19506;51.040;3.856;2023-04-06T14:38:43;17.10;99.90
33149;DHT22;19506;51.040;3.856;2023-04-06T14:41:23;17.10;99.90
33149;DHT22;19506;51.040;3.856;2023-04-06T14:43:49;17.20;99.90
33149;DHT22;19506;51.040;3.856;2023-04-06T14:46:14;17.20;99.90
33149;DHT22;19506;51.040;3.856;2023-04-06T14:48:41;17.20;99.90
33149;DHT22;19506;51.040;3.856;2023-04-06T14:51:06;17.20;99.90
33149;DHT22;19506;51.040;3.856;2023-04-06T14:53:32;17.20;99.90
33149;DHT22;19506;51.040;3.856;2023-04-06T14:55:58;17.20;99.90
33149;DHT22;19506;51.040;3.856;2023-04-06T14:58:25;17.20;99.90
33149;DHT22;19506;51.040;3.856;2023-04-06T15:00:56;17.10;99.90
33149;DHT22;19506;51.040;3.856;2023-04-06T15:03:23;17.10;99.90
33149;DHT22;19506;51.040;3.856;2023-04-06T15:05:51;17.10;99.90
33149;DHT22;19506;51.040;3.856;2023-04-06T15:08:17;17.10;99.90
33149;DHT22;19506;51.040;3.856;2023-04-06T15:10:46;17.10;99.90
33149;DHT22;19506;51.040;3.856;2023-04-06T15:13:11;17.10;99.90
33149;DHT22;19506;51.040;3.856;2023-04-06T15:15:37;17.10;99.90
33149;DHT22;19506;51.040;3.856;2023-04-06T15:18:03;17.10;99.90
33149;DHT22;19506;51.040;3.856;2023-04-06T15:20:29;17.20;99.90
33149;DHT22;19506;51.040;3.856;2023-04-06T15:22:54;17.20;99.90
33149;DHT22;19506;51.040;3.856;2023-04-06T15:25:20;17.20;99.90
33149;DHT22;19506;51.040;3.856;2023-04-06T15:27:46;17.20;99.90
33149;DHT22;19506;51.040;3.856;2023-04-06T15:30:12;17.20;99.90
33149;DHT22;19506;51.040;3.856;2023-04-06T15:32:37;17.20;99.90
33149;DHT22;19506;51.040;3.856;2023-04-06T15:35:10;17.20;99.90